Time;durP1;ratioP1;P1;durP2;ratioP2;P2;SDS_P1;SDS_P2;PMS_P1;PMS_P2;Temp;Humidity;BMP_temperature;BMP_pressure;BME280_temperature;BME280_humidity;BME280_pressure;Samples;Min_cycle;Max_cycle;Signal;HPM_P1;HPM_P2
2024/01/26 00:00:29;;;;;;;1.00;0.83;;;;;6.80;95012.00;;;;7397881;19;20160;-82
2024/01/26 00:03:06;;;;;;;0.50;0.50;;;;;6.70;95022.00;;;;7400094;19;20145;-84
2024/01/26 00:05:39;;;;;;;1.20;0.60;;;;;6.70;95033.00;;;;7401207;19;20609;-83
2024/01/26 00:08:17;;;;;;;0.67;0.43;;;;;6.70;95014.00;;;;7402246;19;20124;-83
2024/01/26 00:10:48;;;;;;;0.60;0.60;;;;;6.60;95018.00;;;;7402398;19;20141;-81
2024/01/26 00:13:23;;;;;;;0.90;0.60;;;;;6.80;95022.00;;;;7401923;19;20140;-82
2024/01/26 00:15:51;;;;;;;0.37;0.37;;;;;6.90;95021.00;;;;7401676;19;20484;-83
2024/01/26 00:18:26;;;;;;;0.97;0.80;;;;;6.80;95016.00;;;;7404170;19;20629;-83
2024/01/26 00:21:01;;;;;;;1.17;0.70;;;;;6.90;95018.00;;;;7401851;19;20500;-83
2024/01/26 00:23:35;;;;;;;3.00;1.00;;;;;6.80;95012.00;;;;7400627;19;20129;-83
2024/01/26 00:26:03;;;;;;;1.27;1.00;;;;;6.80;95015.00;;;;7401431;19;20144;-81
2024/01/26 00:28:45;;;;;;;2.03;0.90;;;;;6.70;95017.00;;;;7401084;19;20144;-84
2024/01/26 00:31:21;;;;;;;1.10;0.90;;;;;6.70;95001.00;;;;7401362;19;20612;-84
2024/01/26 00:33:58;;;;;;;2.73;1.20;;;;;6.80;95014.00;;;;7401544;19;20136;-84
2024/01/26 00:36:25;;;;;;;1.47;0.70;;;;;6.80;95024.00;;;;7401690;19;20136;-84
2024/01/26 00:38:59;;;;;;;1.20;1.10;;;;;6.80;95004.00;;;;7402021;19;20200;-85
2024/01/26 00:41:29;;;;;;;1.13;1.03;;;;;6.80;95000.00;;;;7402944;19;20136;-84
2024/01/26 00:44:03;;;;;;;1.10;0.90;;;;;6.70;95005.00;;;;7399013;19;20501;-82
2024/01/26 00:46:37;;;;;;;2.37;1.00;;;;;6.90;95008.00;;;;7397741;19;20136;-83
2024/01/26 00:49:12;;;;;;;0.90;0.90;;;;;6.60;95005.00;;;;7397987;19;20144;-82
2024/01/26 00:51:49;;;;;;;2.77;1.10;;;;;6.80;94998.00;;;;7401084;19;20621;-84
2024/01/26 00:54:23;;;;;;;0.70;0.70;;;;;6.30;94998.00;;;;7402058;19;20136;-83
2024/01/26 00:56:57;;;;;;;0.80;0.80;;;;;6.50;94984.00;;;;7399150;19;20164;-84
2024/01/26 00:59:34;;;;;;;2.10;0.73;;;;;6.30;94990.00;;;;7398673;19;20145;-85
2024/01/26 01:02:02;;;;;;;2.80;1.00;;;;;6.40;94986.00;;;;7398696;19;20495;-82
2024/01/26 01:04:38;;;;;;;1.13;0.83;;;;;6.30;94992.00;;;;7401181;19;20132;-84
2024/01/26 01:07:06;;;;;;;2.07;0.87;;;;;6.50;94993.00;;;;7400097;19;20166;-82
2024/01/26 01:09:41;;;;;;;1.77;0.73;;;;;6.50;94993.00;;;;7400815;19;20231;-83
2024/01/26 01:12:15;;;;;;;1.47;0.87;;;;;6.30;94989.00;;;;7400071;19;20608;-83
2024/01/26 01:14:49;;;;;;;0.63;0.60;;;;;6.30;94992.00;;;;7399716;19;20145;-82
2024/01/26 01:17:19;;;;;;;3.03;0.80;;;;;6.20;94996.00;;;;7400067;19;20141;-81
2024/01/26 01:19:53;;;;;;;3.30;0.83;;;;;6.30;94992.00;;;;7398851;19;20145;-83
2024/01/26 01:22:21;;;;;;;0.67;0.60;;;;;6.30;94994.00;;;;7400894;19;20630;-81
2024/01/26 01:24:55;;;;;;;1.13;0.80;;;;;6.10;94993.00;;;;7400274;19;20145;-85
2024/01/26 01:27:23;;;;;;;4.40;0.80;;;;;6.00;94990.00;;;;7399751;19;20156;-84
2024/01/26 01:29:58;;;;;;;0.90;0.80;;;;;6.10;94993.00;;;;7400980;19;20128;-84
2024/01/26 01:32:27;;;;;;;0.90;0.40;;;;;6.10;94983.00;;;;7402132;19;20560;-85
2024/01/26 01:35:02;;;;;;;1.07;0.80;;;;;6.20;94992.00;;;;7400575;19;21120;-84
2024/01/26 01:37:36;;;;;;;4.77;0.83;;;;;6.10;94983.00;;;;7399312;19;20152;-82
2024/01/26 01:40:10;;;;;;;2.83;0.40;;;;;6.30;94976.00;;;;7401186;19;20148;-83
2024/01/26 01:42:38;;;;;;;2.23;0.70;;;;;6.10;94974.00;;;;7404527;19;20177;-83
2024/01/26 01:45:14;;;;;;;2.33;0.60;;;;;6.00;94972.00;;;;7406710;19;20127;-84
2024/01/26 01:47:48;;;;;;;1.53;0.90;;;;;6.30;94977.00;;;;7408982;19;20141;-83
2024/01/26 01:50:16;;;;;;;3.80;0.60;;;;;6.20;94983.00;;;;7407204;19;20136;-84
2024/01/26 01:52:55;;;;;;;0.70;0.70;;;;;6.30;94978.00;;;;7407043;19;20141;-83
2024/01/26 01:55:30;;;;;;;3.23;0.73;;;;;6.10;94977.00;;;;7405585;19;20608;-83
2024/01/26 01:58:12;;;;;;;3.00;0.90;;;;;6.20;94971.00;;;;7408400;19;20141;-84
2024/01/26 02:00:41;;;;;;;1.43;0.50;;;;;6.20;94965.00;;;;7405261;19;20144;-87
2024/01/26 02:03:16;;;;;;;1.00;0.60;;;;;6.40;94968.00;;;;7408181;19;20136;-84
2024/01/26 02:05:44;;;;;;;0.53;0.53;;;;;6.30;94966.00;;;;7408176;19;20459;-82
2024/01/26 02:08:18;;;;;;;1.37;0.50;;;;;6.20;94970.00;;;;7409534;19;20133;-84
2024/01/26 02:10:46;;;;;;;1.83;0.70;;;;;6.30;94971.00;;;;7406614;19;20137;-84
2024/01/26 02:13:25;;;;;;;0.90;0.50;;;;;6.20;94972.00;;;;7408850;19;20564;-84
2024/01/26 02:15:59;;;;;;;1.70;0.70;;;;;6.40;94981.00;;;;7405168;19;20541;-80
2024/01/26 02:18:36;;;;;;;1.30;0.60;;;;;6.40;94978.00;;;;7403249;19;20153;-79
2024/01/26 02:21:11;;;;;;;0.77;0.43;;;;;6.40;94958.00;;;;7401375;19;20140;-79
2024/01/26 02:23:45;;;;;;;1.50;0.70;;;;;6.30;94962.00;;;;7402840;19;20129;-80
2024/01/26 02:26:21;;;;;;;1.27;0.53;;;;;6.10;94969.00;;;;7402322;19;20622;-77
2024/01/26 02:28:58;;;;;;;0.83;0.40;;;;;6.30;94969.00;;;;7402582;19;20174;-81
2024/01/26 02:31:25;;;;;;;1.93;1.20;;;;;6.40;94975.00;;;;7403368;19;20137;-79
2024/01/26 02:34:12;;;;;;;1.60;0.60;;;;;6.20;94979.00;;;;7403594;19;20153;-78
2024/01/26 02:36:40;;;;;;;0.97;0.77;;;;;6.10;94977.00;;;;7402269;19;20166;-79
2024/01/26 02:39:16;;;;;;;2.83;0.60;;;;;6.30;94986.00;;;;7402379;19;20178;-78
2024/01/26 02:41:44;;;;;;;1.00;0.70;;;;;6.10;94973.00;;;;7401611;19;20145;-79
2024/01/26 02:44:18;;;;;;;1.03;0.60;;;;;6.40;94963.00;;;;7404801;19;20147;-79
2024/01/26 02:46:47;;;;;;;2.97;0.70;;;;;6.40;94968.00;;;;7402798;19;20148;-81
2024/01/26 02:49:23;;;;;;;1.07;0.50;;;;;6.40;94963.00;;;;7403725;19;20600;-79
2024/01/26 02:51:53;;;;;;;3.37;0.50;;;;;6.20;94965.00;;;;7403455;19;20147;-78
2024/01/26 02:54:31;;;;;;;1.90;0.70;;;;;6.40;94965.00;;;;7401327;19;20204;-81
2024/01/26 02:57:05;;;;;;;1.07;0.80;;;;;6.30;94969.00;;;;7400224;19;20620;-79
2024/01/26 02:59:40;;;;;;;1.07;0.63;;;;;6.40;94970.00;;;;7403035;19;20143;-82
2024/01/26 03:02:14;;;;;;;2.57;0.80;;;;;6.40;94970.00;;;;7398739;19;20164;-81
2024/01/26 03:04:49;;;;;;;0.83;0.60;;;;;6.50;94968.00;;;;7398983;19;20608;-81
2024/01/26 03:07:16;;;;;;;0.40;0.40;;;;;6.40;94961.00;;;;7397175;19;20533;-80
2024/01/26 03:09:53;;;;;;;2.93;0.80;;;;;6.50;94964.00;;;;7400560;19;20245;-81
2024/01/26 03:12:23;;;;;;;2.27;0.73;;;;;6.50;94970.00;;;;7399401;19;20144;-80
2024/01/26 03:14:57;;;;;;;1.40;0.50;;;;;6.30;94973.00;;;;7399205;19;20684;-81
2024/01/26 03:17:33;;;;;;;1.00;0.80;;;;;6.50;94973.00;;;;7400050;19;20512;-81
2024/01/26 03:20:02;;;;;;;1.87;0.80;;;;;6.60;94974.00;;;;7400356;19;20156;-79
2024/01/26 03:22:36;;;;;;;0.77;0.77;;;;;6.60;94976.00;;;;7397763;19;20136;-81
2024/01/26 03:25:04;;;;;;;2.07;0.70;;;;;6.60;94985.00;;;;7400222;19;20169;-79
2024/01/26 03:27:32;;;;;;;1.17;0.87;;;;;6.60;94975.00;;;;7401020;19;20140;-80
2024/01/26 03:30:07;;;;;;;2.80;0.90;;;;;6.80;94976.00;;;;7401144;19;20141;-82
2024/01/26 03:32:34;;;;;;;1.00;0.80;;;;;6.70;94980.00;;;;7400748;19;20156;-82
2024/01/26 03:35:02;;;;;;;2.13;0.60;;;;;6.70;94986.00;;;;7399616;19;20169;-79
2024/01/26 03:37:38;;;;;;;2.67;0.80;;;;;6.80;94984.00;;;;7399590;19;20145;-81
2024/01/26 03:40:12;;;;;;;1.53;0.70;;;;;6.70;94981.00;;;;7400527;19;20140;-79
2024/01/26 03:42:46;;;;;;;2.03;0.80;;;;;6.70;94983.00;;;;7398126;19;20148;-80
2024/01/26 03:45:14;;;;;;;1.53;0.70;;;;;6.80;94974.00;;;;7400022;19;20162;-79
2024/01/26 03:47:46;;;;;;;1.90;0.80;;;;;6.80;94984.00;;;;7399096;19;20625;-80
2024/01/26 03:50:20;;;;;;;1.70;0.77;;;;;6.90;94987.00;;;;7399889;19;20510;-81
2024/01/26 03:52:52;;;;;;;1.10;0.67;;;;;6.90;94977.00;;;;7399899;19;20140;-80
2024/01/26 03:55:40;;;;;;;0.80;0.80;;;;;6.90;94988.00;;;;7399802;19;20560;-80
2024/01/26 03:58:07;;;;;;;0.67;0.63;;;;;6.90;94976.00;;;;7401482;19;20224;-81
2024/01/26 04:00:41;;;;;;;0.90;0.70;;;;;6.90;94975.00;;;;7400735;19;20133;-81
2024/01/26 04:03:16;;;;;;;1.10;0.73;;;;;6.80;94967.00;;;;7399846;19;20492;-80
2024/01/26 04:05:50;;;;;;;0.80;0.67;;;;;6.80;94972.00;;;;7398067;19;20137;-79
2024/01/26 04:08:25;;;;;;;0.63;0.60;;;;;6.80;94978.00;;;;7400134;19;20143;-79
2024/01/26 04:11:00;;;;;;;5.90;1.10;;;;;6.60;94984.00;;;;7397664;19;20499;-81
2024/01/26 04:13:36;;;;;;;3.10;0.77;;;;;6.60;94975.00;;;;7399656;19;20177;-79
2024/01/26 04:16:07;;;;;;;1.20;0.90;;;;;6.60;94968.00;;;;7398963;19;20150;-80
2024/01/26 04:18:43;;;;;;;1.43;1.03;;;;;6.60;94979.00;;;;7399700;19;20612;-80
2024/01/26 04:21:18;;;;;;;0.83;0.80;;;;;6.60;94979.00;;;;7398145;19;20148;-80
2024/01/26 04:23:46;;;;;;;3.53;1.40;;;;;6.70;94994.00;;;;7398767;19;20470;-80
2024/01/26 04:26:21;;;;;;;1.03;0.93;;;;;6.80;94990.00;;;;7398888;19;20140;-80
2024/01/26 04:28:52;;;;;;;1.03;0.93;;;;;6.80;94990.00;;;;7399241;19;20156;-79
2024/01/26 04:31:22;;;;;;;1.53;0.97;;;;;6.80;94980.00;;;;7398616;19;20141;-81
2024/01/26 04:33:56;;;;;;;1.93;1.00;;;;;6.70;94976.00;;;;7400107;19;20154;-85
2024/01/26 04:36:24;;;;;;;3.40;1.00;;;;;6.70;94979.00;;;;7398318;19;20458;-81
2024/01/26 04:38:59;;;;;;;1.50;0.93;;;;;6.70;94977.00;;;;7398348;19;20157;-81
2024/01/26 04:41:27;;;;;;;2.33;1.13;;;;;6.80;94983.00;;;;7398357;19;20200;-80
2024/01/26 04:44:01;;;;;;;1.10;0.83;;;;;6.70;94987.00;;;;7395937;19;20179;-79
2024/01/26 04:46:36;;;;;;;3.57;1.00;;;;;6.70;94998.00;;;;7397508;19;20179;-80
2024/01/26 04:49:03;;;;;;;2.50;1.00;;;;;6.80;94990.00;;;;7397467;19;20633;-82
2024/01/26 04:51:31;;;;;;;1.53;0.80;;;;;6.80;94985.00;;;;7398507;19;20620;-81
2024/01/26 04:54:05;;;;;;;1.97;0.70;;;;;6.70;94994.00;;;;7398172;19;20133;-80
2024/01/26 04:56:35;;;;;;;0.77;0.70;;;;;6.70;94989.00;;;;7396696;19;20175;-78
2024/01/26 04:59:15;;;;;;;0.73;0.73;;;;;6.80;94990.00;;;;7398620;19;20144;-81
2024/01/26 05:01:49;;;;;;;1.50;0.80;;;;;6.70;94978.00;;;;7397084;19;20155;-80
2024/01/26 05:04:17;;;;;;;2.40;0.80;;;;;6.60;94978.00;;;;7397577;19;20161;-80
2024/01/26 05:06:51;;;;;;;0.97;0.83;;;;;6.60;94980.00;;;;7397740;19;20144;-80
2024/01/26 05:09:26;;;;;;;0.70;0.70;;;;;6.60;94976.00;;;;7396241;19;20490;-81
2024/01/26 05:12:00;;;;;;;0.90;0.80;;;;;6.60;94974.00;;;;7396613;19;20612;-81
2024/01/26 05:14:28;;;;;;;1.27;1.10;;;;;6.50;94969.00;;;;7397649;19;20143;-82
2024/01/26 05:17:03;;;;;;;2.33;0.90;;;;;6.60;94973.00;;;;7401078;19;20148;-80
2024/01/26 05:19:37;;;;;;;3.33;0.93;;;;;6.50;94969.00;;;;7404742;19;20165;-79
2024/01/26 05:22:07;;;;;;;1.13;0.90;;;;;6.60;94953.00;;;;7404112;19;20148;-80
2024/01/26 05:24:43;;;;;;;1.47;0.97;;;;;6.30;94952.00;;;;7404454;19;20143;-79
2024/01/26 05:27:19;;;;;;;0.83;0.83;;;;;6.50;94946.00;;;;7405496;19;20164;-81
2024/01/26 05:29:53;;;;;;;2.33;1.13;;;;;6.50;94952.00;;;;7406074;19;20170;-80
2024/01/26 05:32:22;;;;;;;0.90;0.90;;;;;6.40;94955.00;;;;7404890;19;20181;-82
2024/01/26 05:34:56;;;;;;;1.87;1.00;;;;;6.50;94957.00;;;;7404025;19;20485;-80
2024/01/26 05:37:37;;;;;;;1.40;0.80;;;;;6.50;94962.00;;;;7404464;19;20140;-80
2024/01/26 05:40:14;;;;;;;3.63;1.40;;;;;6.40;94953.00;;;;7404773;19;20507;-81
2024/01/26 05:42:42;;;;;;;1.10;1.00;;;;;6.40;94963.00;;;;7403529;19;20137;-81
2024/01/26 05:45:19;;;;;;;2.17;1.10;;;;;6.40;94957.00;;;;7404190;19;20156;-78
2024/01/26 05:47:51;;;;;;;1.43;1.30;;;;;6.40;94963.00;;;;7402939;19;20152;-81
2024/01/26 05:50:25;;;;;;;1.73;1.20;;;;;6.60;94964.00;;;;7402316;19;20169;-79
2024/01/26 05:52:53;;;;;;;1.20;1.10;;;;;6.50;94966.00;;;;7403188;19;20145;-79
2024/01/26 05:55:20;;;;;;;2.10;1.33;;;;;6.60;94969.00;;;;7404611;19;20153;-79
2024/01/26 05:58:01;;;;;;;1.80;1.40;;;;;6.50;94974.00;;;;7402808;19;20148;-81
2024/01/26 06:00:35;;;;;;;1.30;1.20;;;;;6.50;94971.00;;;;7404945;19;20483;-79
2024/01/26 06:03:03;;;;;;;1.73;1.30;;;;;6.60;94968.00;;;;7402153;19;20660;-77
2024/01/26 06:05:38;;;;;;;1.40;1.30;;;;;6.60;94971.00;;;;7403303;19;20136;-80
2024/01/26 06:08:12;;;;;;;5.20;1.60;;;;;6.60;94964.00;;;;7402893;19;20166;-81
2024/01/26 06:10:45;;;;;;;1.70;1.60;;;;;6.60;94982.00;;;;7404199;19;20502;-81
2024/01/26 06:13:13;;;;;;;1.60;1.50;;;;;6.70;94973.00;;;;7403504;19;20154;-80
2024/01/26 06:15:48;;;;;;;2.03;1.73;;;;;6.40;94978.00;;;;7402177;19;20178;-80
2024/01/26 06:18:17;;;;;;;2.40;1.80;;;;;6.50;94967.00;;;;7403237;19;20145;-81
2024/01/26 06:20:52;;;;;;;1.60;1.50;;;;;6.60;94976.00;;;;7403475;19;20612;-81
2024/01/26 06:23:27;;;;;;;2.10;1.40;;;;;6.60;94977.00;;;;7401646;19;20136;-80
2024/01/26 06:26:01;;;;;;;2.20;1.70;;;;;6.60;94972.00;;;;7402809;19;20621;-83
2024/01/26 06:28:37;;;;;;;4.87;1.83;;;;;6.50;94969.00;;;;7402137;19;20149;-80
2024/01/26 06:31:17;;;;;;;1.70;1.53;;;;;6.40;94969.00;;;;7403003;19;20147;-79
2024/01/26 06:33:51;;;;;;;2.47;1.73;;;;;6.60;94979.00;;;;7401985;19;20151;-78
2024/01/26 06:36:26;;;;;;;1.90;1.40;;;;;6.60;94975.00;;;;7401735;19;20145;-80
2024/01/26 06:38:53;;;;;;;3.20;1.50;;;;;6.60;94961.00;;;;7402990;19;20622;-79
2024/01/26 06:41:34;;;;;;;2.43;1.30;;;;;6.80;94967.00;;;;7402707;19;20136;-79
2024/01/26 06:44:02;;;;;;;2.70;1.27;;;;;6.80;94966.00;;;;7397822;19;20204;-80
2024/01/26 06:46:36;;;;;;;0.90;0.90;;;;;6.80;94963.00;;;;7401283;19;20140;-79
2024/01/26 06:49:06;;;;;;;1.90;1.27;;;;;7.00;94967.00;;;;7402076;19;20629;-80
2024/01/26 06:51:41;;;;;;;1.70;1.20;;;;;6.90;94972.00;;;;7401176;19;20145;-79
2024/01/26 06:54:17;;;;;;;1.93;1.10;;;;;7.00;94965.00;;;;7400792;19;20153;-79
2024/01/26 06:56:57;;;;;;;1.20;1.07;;;;;6.90;94967.00;;;;7400943;19;20155;-80
2024/01/26 06:59:39;;;;;;;1.37;0.90;;;;;7.10;94968.00;;;;7401271;19;20129;-80
2024/01/26 07:02:06;;;;;;;1.50;1.17;;;;;7.10;94965.00;;;;7399039;19;20535;-81
2024/01/26 07:04:40;;;;;;;2.23;1.00;;;;;7.20;94890.00;;;;7398677;19;20201;-79
2024/01/26 07:07:08;;;;;;;1.20;1.10;;;;;7.10;94959.00;;;;7400157;19;20665;-78
2024/01/26 07:09:46;;;;;;;0.97;0.90;;;;;7.10;94963.00;;;;7398976;19;20476;-79
2024/01/26 07:12:17;;;;;;;2.60;1.20;;;;;7.20;94967.00;;;;7400139;19;20137;-81
2024/01/26 07:14:50;;;;;;;1.13;1.03;;;;;7.30;94965.00;;;;7399887;19;20611;-79
2024/01/26 07:17:20;;;;;;;1.53;1.17;;;;;7.30;94957.00;;;;7400043;19;20144;-79
2024/01/26 07:19:54;;;;;;;0.93;0.70;;;;;7.20;94952.00;;;;7400635;19;20623;-79
2024/01/26 07:22:24;;;;;;;0.90;0.90;;;;;7.10;94940.00;;;;7398931;19;20144;-77
2024/01/26 07:24:58;;;;;;;1.47;0.90;;;;;7.10;94950.00;;;;7398550;19;20633;-80
2024/01/26 07:27:26;;;;;;;0.73;0.70;;;;;7.00;94950.00;;;;7399969;19;20596;-79
2024/01/26 07:30:02;;;;;;;1.13;1.03;;;;;7.00;94935.00;;;;7400184;19;20155;-79
2024/01/26 07:32:36;;;;;;;3.13;0.88;;;;;7.10;94940.00;;;;7399171;19;20148;-79
2024/01/26 07:35:10;;;;;;;1.00;0.90;;;;;7.10;94950.00;;;;7398291;19;20145;-77
2024/01/26 07:37:45;;;;;;;1.43;0.70;;;;;7.20;94939.00;;;;7400137;19;20610;-79
2024/01/26 07:40:19;;;;;;;1.13;0.90;;;;;7.30;94947.00;;;;7396487;19;20148;-79
2024/01/26 07:42:47;;;;;;;1.17;1.00;;;;;7.40;94952.00;;;;7399351;19;20137;-79
2024/01/26 07:45:21;;;;;;;1.67;0.70;;;;;7.20;94948.00;;;;7397354;19;20141;-78
2024/01/26 07:47:52;;;;;;;1.00;0.90;;;;;7.20;94952.00;;;;7399019;19;20149;-80
2024/01/26 07:50:20;;;;;;;0.57;0.50;;;;;7.30;94955.00;;;;7399396;19;20145;-78
2024/01/26 07:52:54;;;;;;;0.90;0.80;;;;;7.30;94939.00;;;;7398452;19;20144;-79
2024/01/26 07:55:26;;;;;;;0.93;0.80;;;;;7.30;94935.00;;;;7398494;19;20512;-77
2024/01/26 07:58:08;;;;;;;1.00;0.63;;;;;7.50;94941.00;;;;7394039;19;20164;-79
2024/01/26 08:00:36;;;;;;;1.33;0.93;;;;;7.50;94932.00;;;;7395610;19;20120;-80
2024/01/26 08:03:12;;;;;;;2.53;1.13;;;;;7.10;94927.00;;;;7395133;19;20137;-80
2024/01/26 08:05:48;;;;;;;0.93;0.87;;;;;7.40;94941.00;;;;7395939;19;20519;-83
2024/01/26 08:08:16;;;;;;;2.88;1.30;;;;;7.40;94945.00;;;;7397835;19;20129;-83
2024/01/26 08:10:50;;;;;;;1.02;0.80;;;;;7.70;94941.00;;;;7396843;19;20137;-83
2024/01/26 08:13:24;;;;;;;1.08;0.90;;;;;7.70;94948.00;;;;7401061;19;20584;-84
2024/01/26 08:15:52;;;;;;;1.00;0.90;;;;;7.80;94941.00;;;;7399315;19;20146;-84
2024/01/26 08:18:26;;;;;;;2.13;0.80;;;;;8.00;94928.00;;;;7400621;19;20137;-84
2024/01/26 08:21:00;;;;;;;0.73;0.73;;;;;8.10;94919.00;;;;7400678;19;20553;-84
2024/01/26 08:23:28;;;;;;;2.50;0.80;;;;;8.00;94935.00;;;;7398962;19;20637;-84
2024/01/26 08:26:03;;;;;;;0.90;0.90;;;;;8.00;94925.00;;;;7398142;19;20514;-83
2024/01/26 08:28:30;;;;;;;1.73;0.80;;;;;8.10;94909.00;;;;7399275;19;20147;-83
2024/01/26 08:31:06;;;;;;;2.88;0.95;;;;;8.20;94908.00;;;;7398862;19;20190;-83
2024/01/26 08:33:41;;;;;;;1.00;0.88;;;;;8.30;94910.00;;;;7400159;19;20188;-86
2024/01/26 08:36:15;;;;;;;1.30;0.88;;;;;8.40;94910.00;;;;7398931;19;20718;-83
2024/01/26 08:38:43;;;;;;;1.20;1.10;;;;;8.40;94912.00;;;;7399784;19;20608;-83
2024/01/26 08:41:17;;;;;;;1.63;0.95;;;;;8.30;94898.00;;;;7401658;19;20173;-84
2024/01/26 08:43:53;;;;;;;2.35;0.90;;;;;8.20;94893.00;;;;7399167;19;20509;-83
2024/01/26 08:46:27;;;;;;;0.82;0.82;;;;;8.30;94889.00;;;;7398968;19;20620;-84
2024/01/26 08:48:55;;;;;;;2.08;0.85;;;;;8.30;94882.00;;;;7399052;19;20145;-83
2024/01/26 08:51:30;;;;;;;1.00;0.90;;;;;8.40;94885.00;;;;7400857;19;20151;-84
2024/01/26 08:54:04;;;;;;;1.10;0.90;;;;;8.50;94889.00;;;;7400791;19;20152;-85
2024/01/26 08:56:31;;;;;;;1.13;1.00;;;;;8.40;94884.00;;;;7398570;19;20193;-85
2024/01/26 08:59:07;;;;;;;0.90;0.90;;;;;8.30;94885.00;;;;7399045;19;20200;-83
2024/01/26 09:01:41;;;;;;;1.00;0.90;;;;;8.40;94897.00;;;;7398032;19;20497;-83
2024/01/26 09:04:20;;;;;;;1.00;0.90;;;;;8.40;94893.00;;;;7397393;19;20643;-84
2024/01/26 09:06:59;;;;;;;1.10;1.00;;;;;8.40;94892.00;;;;7397691;19;20636;-83
2024/01/26 09:09:40;;;;;;;1.15;1.00;;;;;8.40;94896.00;;;;7398407;19;20145;-85
2024/01/26 09:12:07;;;;;;;1.30;1.20;;;;;8.30;94901.00;;;;7397166;19;20618;-83
2024/01/26 09:14:43;;;;;;;1.10;1.00;;;;;8.30;94890.00;;;;7397678;19;20136;-77
2024/01/26 09:17:10;;;;;;;1.00;0.80;;;;;8.50;94878.00;;;;7396750;19;20137;-79
2024/01/26 09:19:46;;;;;;;1.00;0.90;;;;;8.60;94878.00;;;;7395715;19;20500;-79
2024/01/26 09:22:25;;;;;;;1.95;0.93;;;;;8.80;94886.00;;;;7396482;19;20137;-80
2024/01/26 09:24:59;;;;;;;0.60;0.60;;;;;8.60;94881.00;;;;7394870;19;20617;-79
2024/01/26 09:27:34;;;;;;;1.02;0.80;;;;;8.60;94867.00;;;;7396246;19;20503;-78
2024/01/26 09:30:09;;;;;;;1.35;0.90;;;;;8.90;94879.00;;;;7396305;19;20485;-78
2024/01/26 09:32:42;;;;;;;0.85;0.85;;;;;8.90;94874.00;;;;7397198;19;20140;-79
2024/01/26 09:35:12;;;;;;;1.08;0.98;;;;;9.20;94876.00;;;;7395954;19;20145;-77
2024/01/26 09:37:45;;;;;;;0.90;0.85;;;;;9.00;94879.00;;;;7395672;19;20141;-78
2024/01/26 09:40:22;;;;;;;0.82;0.82;;;;;9.00;94885.00;;;;7396370;19;20144;-77
2024/01/26 09:42:57;;;;;;;1.02;0.75;;;;;9.10;94885.00;;;;7395099;19;20189;-78
2024/01/26 09:45:30;;;;;;;0.73;0.73;;;;;9.20;94882.00;;;;7394677;19;20144;-80
2024/01/26 09:48:04;;;;;;;2.22;1.02;;;;;9.10;94874.00;;;;7395913;19;20136;-80
2024/01/26 09:50:40;;;;;;;1.83;0.70;;;;;9.20;94885.00;;;;7394129;19;20597;-78
2024/01/26 09:53:18;;;;;;;0.98;0.70;;;;;9.30;94877.00;;;;7395498;19;20148;-78
2024/01/26 09:56:06;;;;;;;1.42;0.80;;;;;9.10;94878.00;;;;7395593;19;20600;-81
2024/01/26 09:58:41;;;;;;;2.92;0.60;;;;;9.00;94874.00;;;;7395340;19;20145;-79
2024/01/26 10:01:22;;;;;;;0.73;0.73;;;;;9.10;94880.00;;;;7394936;19;20148;-79
2024/01/26 10:03:58;;;;;;;1.17;0.63;;;;;9.20;94882.00;;;;7402039;19;20148;-80
2024/01/26 10:06:33;;;;;;;0.95;0.88;;;;;9.30;94877.00;;;;7399358;19;20140;-80
2024/01/26 10:09:04;;;;;;;1.20;0.70;;;;;9.20;94879.00;;;;7401849;19;20593;-79
2024/01/26 10:11:38;;;;;;;0.88;0.85;;;;;9.00;94880.00;;;;7403511;19;20517;-80
2024/01/26 10:14:06;;;;;;;0.83;0.77;;;;;9.00;94882.00;;;;7402403;19;20655;-82
2024/01/26 10:16:53;;;;;;;2.30;0.77;;;;;8.80;94870.00;;;;7403196;19;20148;-81
2024/01/26 10:19:28;;;;;;;0.88;0.57;;;;;8.90;94865.00;;;;7403276;19;20208;-82
2024/01/26 10:22:06;;;;;;;1.02;0.90;;;;;8.90;94856.00;;;;7403658;19;20471;-80
2024/01/26 10:24:37;;;;;;;0.70;0.70;;;;;8.80;94859.00;;;;7403863;19;20133;-85
2024/01/26 10:27:12;;;;;;;0.95;0.80;;;;;9.00;94858.00;;;;7405049;19;20161;-84
2024/01/26 10:29:40;;;;;;;2.20;0.90;;;;;9.20;94861.00;;;;7405265;19;20624;-85
2024/01/26 10:32:15;;;;;;;1.90;0.55;;;;;9.00;94858.00;;;;7403407;19;20137;-85
2024/01/26 10:34:51;;;;;;;1.02;0.93;;;;;9.10;94862.00;;;;7403313;19;20144;-85
2024/01/26 10:37:30;;;;;;;2.35;0.73;;;;;8.80;94858.00;;;;7403575;19;20160;-86
2024/01/26 10:40:00;;;;;;;0.70;0.70;;;;;8.90;94843.00;;;;7403990;19;20212;-84
2024/01/26 10:42:38;;;;;;;1.35;0.73;;;;;8.90;94848.00;;;;7403900;19;20163;-83
2024/01/26 10:45:08;;;;;;;2.63;0.70;;;;;9.10;94830.00;;;;7402623;19;20148;-83
2024/01/26 10:47:46;;;;;;;0.98;0.88;;;;;9.60;94842.00;;;;7404537;19;20144;-84
2024/01/26 10:50:18;;;;;;;1.17;0.70;;;;;9.50;94830.00;;;;7403536;19;20633;-84
2024/01/26 10:52:55;;;;;;;2.05;0.80;;;;;9.50;94836.00;;;;7404246;19;20169;-86
2024/01/26 10:55:23;;;;;;;0.77;0.77;;;;;9.30;94845.00;;;;7403351;19;20152;-85
2024/01/26 10:58:05;;;;;;;1.08;0.52;;;;;9.00;94843.00;;;;7401075;19;20396;-84
2024/01/26 11:00:39;;;;;;;0.65;0.60;;;;;9.20;94829.00;;;;7406453;19;20470;-85
2024/01/26 11:03:17;;;;;;;1.25;0.60;;;;;9.10;94847.00;;;;7408527;19;20141;-84
2024/01/26 11:05:52;;;;;;;0.80;0.68;;;;;8.90;94846.00;;;;7406051;19;20139;-85
2024/01/26 11:08:26;;;;;;;0.52;0.52;;;;;9.10;94840.00;;;;7404535;19;20141;-82
2024/01/26 11:11:03;;;;;;;0.63;0.63;;;;;9.00;94845.00;;;;7407051;19;20633;-86
2024/01/26 11:13:37;;;;;;;1.13;0.75;;;;;9.00;94843.00;;;;7405343;19;20495;-85
2024/01/26 11:16:24;;;;;;;0.80;0.80;;;;;8.70;94837.00;;;;7409038;19;20615;-84
2024/01/26 11:19:01;;;;;;;1.92;0.77;;;;;8.50;94834.00;;;;7411174;19;20176;-83
2024/01/26 11:21:45;;;;;;;1.13;0.63;;;;;8.50;94840.00;;;;7414819;19;20580;-83
2024/01/26 11:24:24;;;;;;;1.50;0.90;;;;;8.50;94832.00;;;;7411734;19;20172;-86
2024/01/26 11:26:58;;;;;;;0.95;0.85;;;;;8.50;94844.00;;;;7409054;19;20145;-87
2024/01/26 11:29:40;;;;;;;0.75;0.55;;;;;8.40;94829.00;;;;7412593;19;20137;-85
2024/01/26 11:32:19;;;;;;;3.22;0.80;;;;;8.40;94847.00;;;;7413983;19;20201;-83
2024/01/26 11:35:02;;;;;;;0.80;0.77;;;;;8.30;94848.00;;;;7404768;19;20143;-83
2024/01/26 11:37:31;;;;;;;1.00;0.73;;;;;8.30;94822.00;;;;7399314;19;20628;-83
2024/01/26 11:40:08;;;;;;;0.63;0.63;;;;;8.10;94834.00;;;;7402817;19;20196;-83
2024/01/26 11:42:40;;;;;;;0.95;0.80;;;;;8.10;94827.00;;;;7404201;19;20143;-83
2024/01/26 11:45:37;;;;;;;0.97;0.60;;;;;8.10;94814.00;;;;7405583;19;20144;-82
2024/01/26 11:48:12;;;;;;;3.38;0.50;;;;;8.30;94823.00;;;;7403880;19;20145;-82
2024/01/26 11:50:49;;;;;;;0.67;0.60;;;;;8.30;94814.00;;;;7400647;19;20181;-84
2024/01/26 11:53:23;;;;;;;1.60;0.60;;;;;8.20;94821.00;;;;7399515;19;20592;-82
2024/01/26 11:55:55;;;;;;;0.60;0.60;;;;;8.30;94823.00;;;;7399725;19;20137;-83
2024/01/26 11:58:35;;;;;;;1.00;0.73;;;;;8.20;94828.00;;;;7403357;19;20196;-82
2024/01/26 12:01:09;;;;;;;1.23;0.80;;;;;8.00;94814.00;;;;7400289;19;20165;-81
2024/01/26 12:03:45;;;;;;;1.20;0.77;;;;;8.30;94813.00;;;;7397708;19;20148;-84
2024/01/26 12:06:20;;;;;;;0.82;0.70;;;;;8.60;94817.00;;;;7397952;19;20146;-80
2024/01/26 12:08:55;;;;;;;0.82;0.80;;;;;8.40;94821.00;;;;7398065;19;20231;-83
2024/01/26 12:11:30;;;;;;;1.77;0.50;;;;;8.50;94818.00;;;;7397514;19;20132;-82
2024/01/26 12:14:05;;;;;;;2.40;0.73;;;;;8.40;94819.00;;;;7396643;19;20136;-80
2024/01/26 12:16:41;;;;;;;1.88;0.68;;;;;8.20;94823.00;;;;7396288;19;20153;-82
2024/01/26 12:19:15;;;;;;;0.95;0.70;;;;;8.20;94834.00;;;;7396145;19;20600;-83
2024/01/26 12:21:46;;;;;;;1.60;0.60;;;;;8.40;94828.00;;;;7398432;19;20156;-83
2024/01/26 12:24:16;;;;;;;1.10;0.60;;;;;8.40;94835.00;;;;7399556;19;20482;-84
2024/01/26 12:26:52;;;;;;;0.80;0.60;;;;;8.40;94826.00;;;;7393197;19;20220;-82
2024/01/26 12:29:20;;;;;;;1.30;0.80;;;;;8.40;94841.00;;;;7401383;19;20200;-82
2024/01/26 12:31:56;;;;;;;2.05;0.65;;;;;8.50;94827.00;;;;7401683;19;20137;-82
2024/01/26 12:34:33;;;;;;;1.25;0.60;;;;;8.30;94823.00;;;;7397970;19;20144;-82
2024/01/26 12:37:11;;;;;;;0.73;0.50;;;;;8.30;94817.00;;;;7399731;19;20141;-83
2024/01/26 12:39:47;;;;;;;1.25;0.50;;;;;8.50;94826.00;;;;7398418;19;20216;-84
2024/01/26 12:42:15;;;;;;;0.68;0.60;;;;;8.40;94822.00;;;;7398190;19;20148;-81
2024/01/26 12:44:49;;;;;;;0.95;0.60;;;;;8.40;94813.00;;;;7395660;19;20170;-83
2024/01/26 12:47:17;;;;;;;0.47;0.47;;;;;8.40;94818.00;;;;7392485;19;20133;-78
2024/01/26 12:49:53;;;;;;;0.32;0.32;;;;;8.40;94807.00;;;;7394700;19;20144;-80
2024/01/26 12:52:28;;;;;;;2.22;0.55;;;;;8.30;94802.00;;;;7398036;19;20144;-79
2024/01/26 12:55:02;;;;;;;0.40;0.40;;;;;8.40;94803.00;;;;7397200;19;20168;-81
2024/01/26 12:57:37;;;;;;;0.68;0.68;;;;;8.40;94816.00;;;;7396071;19;20163;-80
2024/01/26 13:00:19;;;;;;;1.70;0.45;;;;;8.30;94811.00;;;;7396978;19;20173;-81